createdAt,value
2018-04-14T01:08:49.220Z,97702
2018-04-14T01:11:17.395Z,97703
2018-04-14T01:13:45.565Z,97712
2018-04-14T01:16:13.765Z,97710
2018-04-14T01:18:41.949Z,97714
2018-04-14T01:21:10.117Z,97722
2018-04-14T01:23:38.289Z,97719
2018-04-14T01:26:06.475Z,97731
2018-04-14T01:28:35.421Z,97739
2018-04-14T01:31:03.601Z,97745
2018-04-14T01:33:31.772Z,97740
2018-04-14T01:35:59.940Z,97742
2018-04-14T01:38:28.107Z,97746
2018-04-14T01:40:56.301Z,97748
2018-04-14T01:43:24.501Z,97747
2018-04-14T01:45:52.682Z,97750
2018-04-14T01:48:20.853Z,97749
2018-04-14T01:50:50.525Z,97753
2018-04-14T01:53:18.701Z,97758
2018-04-14T01:55:46.874Z,97759
2018-04-14T01:58:15.054Z,97759
2018-04-14T02:00:43.225Z,97759
2018-04-14T02:03:11.390Z,97763
2018-04-14T02:05:39.585Z,97762
2018-04-14T02:08:07.746Z,97764
2018-04-14T02:10:35.929Z,97764
2018-04-14T02:13:04.876Z,97769
2018-04-14T02:15:33.834Z,97772
2018-04-14T02:18:02.004Z,97772
2018-04-14T02:20:30.167Z,97771
2018-04-14T02:22:58.330Z,97764
2018-04-14T02:25:26.535Z,97766
2018-04-14T02:27:54.710Z,97767
2018-04-14T02:30:22.890Z,97765
2018-04-14T02:32:51.056Z,97769
2018-04-14T02:35:19.229Z,97766
2018-04-14T02:37:47.411Z,97767
2018-04-14T02:40:15.618Z,97771
2018-04-14T02:42:43.785Z,97765
2018-04-14T02:45:12.709Z,97766
2018-04-14T02:47:40.889Z,97762
2018-04-14T02:50:09.059Z,97757
2018-04-14T02:52:37.236Z,97764
2018-04-14T02:55:05.393Z,97770
2018-04-14T02:57:33.575Z,97780
2018-04-14T03:00:01.730Z,97781
2018-04-14T03:02:29.908Z,97783
2018-04-14T03:04:58.069Z,97785
2018-04-14T03:07:26.997Z,97782
2018-04-14T03:09:55.159Z,97779
2018-04-14T03:12:23.365Z,97784
2018-04-14T03:14:51.532Z,97786
2018-04-14T03:17:19.693Z,97787
2018-04-14T03:19:47.850Z,97789
2018-04-14T03:22:16.021Z,97786
2018-04-14T03:24:44.197Z,97785
2018-04-14T03:27:12.356Z,97787
2018-04-14T03:29:41.322Z,97791
2018-04-14T03:32:09.498Z,97794
2018-04-14T03:34:37.672Z,97793
2018-04-14T03:37:05.850Z,97809
2018-04-14T03:39:34.014Z,97809
2018-04-14T03:42:02.177Z,97815
2018-04-14T03:44:30.347Z,97810
2018-04-14T03:46:58.507Z,97816
2018-04-14T03:49:26.679Z,97815
2018-04-14T03:51:54.841Z,97818
2018-04-14T03:54:23.005Z,97821
2018-04-14T03:56:51.941Z,97819
2018-04-14T03:59:20.105Z,97823
2018-04-14T04:01:48.273Z,97823
2018-04-14T04:04:16.437Z,97824
2018-04-14T04:06:44.612Z,97828
2018-04-14T04:09:12.774Z,97829
2018-04-14T04:11:40.954Z,97835
2018-04-14T04:14:09.123Z,97841
2018-04-14T04:16:37.322Z,97845
2018-04-14T04:19:23.573Z,97843
2018-04-14T04:22:10.246Z,97852
2018-04-14T04:24:56.162Z,97851
2018-04-14T04:27:25.099Z,97855
2018-04-14T04:29:53.264Z,97855
2018-04-14T04:32:21.440Z,97862
2018-04-14T04:34:49.605Z,97866
2018-04-14T04:37:18.549Z,97869
2018-04-14T04:39:46.722Z,97862
2018-04-14T04:42:14.894Z,97868
2018-04-14T04:44:43.093Z,97882
2018-04-14T04:47:11.266Z,97880
2018-04-14T04:49:39.433Z,97879
2018-04-14T04:52:07.615Z,97881
2018-04-14T04:54:35.791Z,97883
2018-04-14T04:57:03.953Z,97889
2018-04-14T04:59:32.140Z,97893
2018-04-14T05:02:00.313Z,97896
2018-04-14T05:04:28.489Z,97904
2018-04-14T05:06:57.422Z,97901
2018-04-14T05:09:25.582Z,97913
2018-04-14T05:11:53.760Z,97922
2018-04-14T05:14:21.929Z,97929
2018-04-14T05:16:50.867Z,97932
2018-04-14T05:19:19.806Z,97929
2018-04-14T05:21:48.741Z,97925
2018-04-14T05:24:16.939Z,97938
2018-04-14T05:26:45.121Z,97932
2018-04-14T05:29:13.302Z,97939
2018-04-14T05:31:41.511Z,97949
2018-04-14T05:34:09.682Z,97953
2018-04-14T05:36:38.611Z,97954
2018-04-14T05:39:06.804Z,97960
2018-04-14T05:41:34.968Z,97957
2018-04-14T05:44:03.149Z,97956
2018-04-14T05:46:31.313Z,97952
2018-04-14T05:48:59.474Z,97952
2018-04-14T05:51:27.677Z,97958
2018-04-14T05:53:55.841Z,97958
2018-04-14T05:56:24.038Z,97961
2018-04-14T05:58:53.057Z,97972
2018-04-14T06:01:21.985Z,97969
2018-04-14T06:03:50.170Z,97972
2018-04-14T06:06:18.616Z,97977
2018-04-14T06:08:46.786Z,97976
2018-04-14T06:11:14.965Z,97975
2018-04-14T06:13:43.141Z,97976
2018-04-14T06:16:11.309Z,97974
2018-04-14T06:18:39.483Z,97979
2018-04-14T06:21:08.416Z,97982
2018-04-14T06:23:36.607Z,97984
2018-04-14T06:26:04.784Z,97977
2018-04-14T06:28:32.977Z,97983
2018-04-14T06:31:01.922Z,97982
2018-04-14T06:33:30.093Z,97981
2018-04-14T06:35:58.266Z,97991
2018-04-14T06:38:26.444Z,97992
2018-04-14T06:40:54.617Z,97996
2018-04-14T06:43:23.125Z,98006
2018-04-14T06:45:51.376Z,98001
2018-04-14T06:48:19.558Z,97998
2018-04-14T06:50:47.727Z,98005
2018-04-14T06:53:15.916Z,98001
2018-04-14T06:55:44.116Z,98007
2018-04-14T06:58:12.293Z,98003
2018-04-14T07:00:40.466Z,97997
2018-04-14T07:03:08.652Z,98003
2018-04-14T07:05:37.612Z,98006
2018-04-14T07:08:05.817Z,98009
2018-04-14T07:10:34.782Z,98018
2018-04-14T07:13:02.974Z,98017
2018-04-14T07:15:31.214Z,98024
2018-04-14T07:17:59.386Z,98021
2018-04-14T07:20:27.574Z,98021
2018-04-14T07:22:55.749Z,98024
2018-04-14T07:25:23.917Z,98022
2018-04-14T07:27:52.101Z,98028
2018-04-14T07:30:20.301Z,98022
2018-04-14T07:32:48.497Z,98020
2018-04-14T07:35:17.435Z,98025
2018-04-14T07:37:45.621Z,98021
2018-04-14T07:40:13.813Z,98021
2018-04-14T07:42:41.984Z,98024
2018-04-14T07:45:10.168Z,98025
2018-04-14T07:47:38.374Z,98027
2018-04-14T07:50:06.557Z,98028
2018-04-14T07:52:34.728Z,98032
2018-04-14T07:55:02.896Z,98028
2018-04-14T07:57:31.074Z,98027
2018-04-14T07:59:59.272Z,98034
2018-04-14T08:02:27.486Z,98036
2018-04-14T08:04:55.661Z,98040
2018-04-14T08:07:23.842Z,98039
2018-04-14T08:09:52.028Z,98035
2018-04-14T08:12:20.977Z,98039
2018-04-14T08:14:49.149Z,98037
2018-04-14T08:17:18.114Z,98034
2018-04-14T08:19:46.293Z,98031
2018-04-14T08:22:14.479Z,98026
2018-04-14T08:24:42.714Z,98030
2018-04-14T08:27:10.974Z,98028
2018-04-14T08:29:39.189Z,98027
2018-04-14T08:32:07.371Z,98033
2018-04-14T08:34:35.547Z,98023
2018-04-14T08:37:03.732Z,98030
2018-04-14T08:39:31.919Z,98023
2018-04-14T08:42:00.090Z,98022
2018-04-14T08:44:28.372Z,98017
2018-04-14T08:46:56.635Z,98020
2018-04-14T08:49:24.802Z,98017
2018-04-14T08:51:52.982Z,98015
2018-04-14T08:54:21.164Z,98013
2018-04-14T08:56:49.348Z,98008
2018-04-14T08:59:17.521Z,98006
2018-04-14T09:01:45.703Z,98002
2018-04-14T09:04:13.896Z,98007
2018-04-14T09:06:42.078Z,98005
2018-04-14T09:09:10.304Z,98002
2018-04-14T09:11:38.461Z,98004
2018-04-14T09:14:06.633Z,97997
2018-04-14T09:16:34.818Z,97994
2018-04-14T09:19:03.003Z,98001
2018-04-14T09:21:31.194Z,97998
2018-04-14T09:23:59.370Z,97995
2018-04-14T09:26:27.545Z,97996
2018-04-14T09:28:55.745Z,97986
2018-04-14T09:31:23.927Z,97984
2018-04-14T09:33:52.881Z,97981
2018-04-14T09:36:21.057Z,97992
2018-04-14T09:38:49.241Z,97988
2018-04-14T09:41:17.454Z,97986
2018-04-14T09:43:46.405Z,97989
2018-04-14T09:46:14.594Z,97985
2018-04-14T09:48:42.768Z,97985
2018-04-14T09:51:10.991Z,97986
2018-04-14T09:53:39.167Z,97976
2018-04-14T09:56:07.342Z,97977
2018-04-14T09:58:35.542Z,97977
2018-04-14T10:01:09.265Z,97975
2018-04-14T10:03:37.461Z,97972
2018-04-14T10:06:14.450Z,97968
2018-04-14T10:08:43.503Z,97963
2018-04-14T10:11:11.668Z,97968
2018-04-14T10:13:39.920Z,97965
2018-04-14T10:16:08.092Z,97962
2018-04-14T10:18:36.296Z,97960
2018-04-14T10:21:04.508Z,97953
2018-04-14T10:23:32.685Z,97950
2018-04-14T10:26:00.853Z,97953
2018-04-14T10:28:29.029Z,97941
2018-04-14T10:30:57.273Z,97951
2018-04-14T10:33:25.478Z,97951
2018-04-14T10:35:53.676Z,97952
2018-04-14T10:38:22.615Z,97953
2018-04-14T10:40:50.797Z,97949
2018-04-14T10:43:18.973Z,97943
2018-04-14T10:45:47.140Z,97945
2018-04-14T10:48:15.324Z,97938
2018-04-14T10:50:43.513Z,97940
2018-04-14T10:53:11.702Z,97937
2018-04-14T10:55:39.883Z,97941
2018-04-14T10:58:08.059Z,97937
2018-04-14T11:00:36.231Z,97932
2018-04-14T11:03:05.174Z,97931
2018-04-14T11:05:33.416Z,97934
2018-04-14T11:08:02.369Z,97927
2018-04-14T11:10:30.567Z,97928
2018-04-14T11:12:58.753Z,97926
2018-04-14T11:15:27.697Z,97917
2018-04-14T11:17:55.874Z,97925
2018-04-14T11:20:24.056Z,97924
2018-04-14T11:22:52.258Z,97929
2018-04-14T11:25:21.220Z,97934
2018-04-14T11:27:49.396Z,97928
2018-04-14T11:30:17.581Z,97927
2018-04-14T11:32:45.753Z,97939
2018-04-14T11:35:13.939Z,97932
2018-04-14T11:37:42.110Z,97928
2018-04-14T11:40:10.323Z,97936
2018-04-14T11:42:39.260Z,97935
2018-04-14T11:45:07.437Z,97934
2018-04-14T11:47:35.635Z,97933
2018-04-14T11:50:03.805Z,97927
2018-04-14T11:52:31.982Z,97919
2018-04-14T11:55:00.167Z,97917
2018-04-14T11:57:29.126Z,97923
2018-04-14T11:59:57.304Z,97917
2018-04-14T12:02:25.537Z,97922
2018-04-14T12:04:53.709Z,97917
2018-04-14T12:07:21.913Z,97912
2018-04-14T12:09:50.109Z,97920
2018-04-14T12:12:18.324Z,97910
2018-04-14T12:14:47.268Z,97905
2018-04-14T12:17:15.439Z,97919
2018-04-14T12:19:43.621Z,97909
2018-04-14T12:22:11.789Z,97906
2018-04-14T12:24:39.969Z,97912
2018-04-14T12:27:08.146Z,97912
2018-04-14T12:29:36.331Z,97910
2018-04-14T12:32:04.522Z,97906
2018-04-14T12:34:33.529Z,97910
2018-04-14T12:37:01.676Z,97912
2018-04-14T12:39:29.862Z,97913
2018-04-14T12:41:58.056Z,97911
2018-04-14T12:44:26.995Z,97906
2018-04-14T12:46:55.165Z,97910
2018-04-14T12:49:23.345Z,97897
2018-04-14T12:51:51.517Z,97896
2018-04-14T12:54:19.682Z,97891
2018-04-14T12:56:48.205Z,97900
2018-04-14T12:59:16.389Z,97888
2018-04-14T13:01:44.622Z,97894
2018-04-14T13:04:12.796Z,97890
2018-04-14T13:06:40.972Z,97885
2018-04-14T13:09:09.191Z,97871
2018-04-14T13:11:37.365Z,97875
2018-04-14T13:14:06.345Z,97872
2018-04-14T13:16:34.546Z,97864
2018-04-14T13:19:03.554Z,97858
2018-04-14T13:21:31.721Z,97861
2018-04-14T13:24:00.672Z,97861
2018-04-14T13:26:28.844Z,97861
2018-04-14T13:28:57.785Z,97859
2018-04-14T13:31:25.966Z,97861
2018-04-14T13:33:54.130Z,97857
2018-04-14T13:36:23.073Z,97857
2018-04-14T13:38:51.265Z,97859
2018-04-14T13:41:19.466Z,97857
2018-04-14T13:43:48.406Z,97858
2018-04-14T13:46:16.613Z,97851
2018-04-14T13:48:44.796Z,97856
2018-04-14T13:51:13.753Z,97854
2018-04-14T13:53:41.921Z,97851
2018-04-14T13:56:10.086Z,97846
2018-04-14T13:58:38.264Z,97843
2018-04-14T14:01:06.436Z,97844
2018-04-14T14:03:34.613Z,97851
2018-04-14T14:06:02.798Z,97841
2018-04-14T14:08:30.963Z,97846
2018-04-14T14:10:59.125Z,97840
2018-04-14T14:13:27.370Z,97839
2018-04-14T14:15:56.317Z,97836
2018-04-14T14:18:24.515Z,97829
2018-04-14T14:20:52.681Z,97829
2018-04-14T14:23:20.846Z,97825
2018-04-14T14:25:49.018Z,97817
2018-04-14T14:28:17.197Z,97823
2018-04-14T14:30:45.393Z,97826
2018-04-14T14:33:13.562Z,97821
2018-04-14T14:35:41.769Z,97813
2018-04-14T14:38:09.979Z,97814
2018-04-14T14:40:38.119Z,97812
2018-04-14T14:43:06.312Z,97816
2018-04-14T14:45:34.479Z,97807
2018-04-14T14:48:02.652Z,97806
2018-04-14T14:50:30.827Z,97803
2018-04-14T14:52:58.996Z,97797
2018-04-14T14:55:27.227Z,97796
2018-04-14T14:57:55.398Z,97795
2018-04-14T15:00:23.577Z,97795
2018-04-14T15:02:51.757Z,97786
2018-04-14T15:05:19.949Z,97787
2018-04-14T15:07:48.119Z,97781
2018-04-14T15:10:16.279Z,97778
2018-04-14T15:12:44.463Z,97777
2018-04-14T15:15:12.634Z,97780
2018-04-14T15:17:40.800Z,97777
2018-04-14T15:20:08.975Z,97778
2018-04-14T15:22:37.149Z,97771
2018-04-14T15:25:05.338Z,97771
2018-04-14T15:27:33.515Z,97777
2018-04-14T15:30:01.735Z,97769
2018-04-14T15:32:29.931Z,97769
2018-04-14T15:34:58.863Z,97769
2018-04-14T15:37:27.037Z,97769
2018-04-14T15:39:55.214Z,97768
2018-04-14T15:42:23.401Z,97770
2018-04-14T15:44:51.583Z,97765
2018-04-14T15:47:19.753Z,97762
2018-04-14T15:49:47.927Z,97767
2018-04-14T15:52:16.115Z,97772
2018-04-14T15:54:44.294Z,97773
2018-04-14T15:57:12.524Z,97769
2018-04-14T15:59:40.705Z,97769
2018-04-14T16:02:08.894Z,97764
2018-04-14T16:04:37.075Z,97765
2018-04-14T16:07:05.249Z,97768
2018-04-14T16:09:33.493Z,97777
2018-04-14T16:12:01.690Z,97777
2018-04-14T16:14:29.862Z,97776
2018-04-14T16:16:58.044Z,97772
2018-04-14T16:19:26.231Z,97769
2018-04-14T16:21:54.437Z,97765
2018-04-14T16:24:23.397Z,97765
2018-04-14T16:26:51.574Z,97770
2018-04-14T16:29:19.740Z,97771
2018-04-14T16:31:48.678Z,97770
2018-04-14T16:34:17.613Z,97769
2018-04-14T16:36:45.791Z,97771
2018-04-14T16:39:13.964Z,97773
2018-04-14T16:41:42.146Z,97775
2018-04-14T16:44:10.327Z,97772
2018-04-14T16:46:38.509Z,97771
2018-04-14T16:49:06.686Z,97769
2018-04-14T16:51:34.845Z,97764
2018-04-14T16:54:03.053Z,97762
2018-04-14T16:56:31.217Z,97768
2018-04-14T16:58:59.395Z,97768
2018-04-14T17:01:27.575Z,97768
2018-04-14T17:03:56.514Z,97763
2018-04-14T17:06:24.682Z,97763
2018-04-14T17:08:52.864Z,97774
2018-04-14T17:11:21.054Z,97774
2018-04-14T17:13:49.240Z,97774
2018-04-14T17:16:17.401Z,97775
2018-04-14T17:18:45.572Z,97771
2018-04-14T17:21:13.778Z,97773
2018-04-14T17:23:41.951Z,97776
2018-04-14T17:26:10.116Z,97781
2018-04-14T17:28:38.278Z,97782
2018-04-14T17:31:06.449Z,97789
2018-04-14T17:33:34.620Z,97797
2018-04-14T17:36:02.791Z,97804
2018-04-14T17:38:30.957Z,97812
2018-04-14T17:40:59.133Z,97813
2018-04-14T17:43:27.310Z,97811
2018-04-14T17:45:55.481Z,97810
2018-04-14T17:48:23.677Z,97806
2018-04-14T17:50:51.865Z,97817
2018-04-14T17:53:20.044Z,97813
2018-04-14T17:55:48.227Z,97822
2018-04-14T17:58:16.397Z,97826
2018-04-14T18:00:44.590Z,97831
2018-04-14T18:03:13.539Z,97835
2018-04-14T18:05:41.711Z,97846
2018-04-14T18:08:09.881Z,97853
2018-04-14T18:10:38.101Z,97852
2018-04-14T18:13:07.037Z,97862
2018-04-14T18:15:35.241Z,97868
2018-04-14T18:18:03.413Z,97874
2018-04-14T18:20:31.581Z,97878
2018-04-14T18:22:59.786Z,97878
2018-04-14T18:25:27.952Z,97883
2018-04-14T18:27:56.131Z,97888
2018-04-14T18:30:24.306Z,97886
2018-04-14T18:32:52.490Z,97895
2018-04-14T18:35:21.460Z,97894
2018-04-14T18:37:49.628Z,97899
2018-04-14T18:40:17.806Z,97898
2018-04-14T18:42:45.983Z,97901
2018-04-14T18:45:14.156Z,97903
2018-04-14T18:47:42.358Z,97909
2018-04-14T18:50:11.352Z,97909
2018-04-14T18:52:39.480Z,97918
2018-04-14T18:55:07.692Z,97915
2018-04-14T18:57:35.862Z,97920
2018-04-14T19:00:04.103Z,97923
2018-04-14T19:02:32.274Z,97923
2018-04-14T19:05:00.439Z,97923
2018-04-14T19:07:28.613Z,97923
2018-04-14T19:09:56.772Z,97924
2018-04-14T19:12:24.961Z,97924
2018-04-14T19:14:53.141Z,97924
2018-04-14T19:17:21.316Z,97922
2018-04-14T19:19:49.501Z,97928
2018-04-14T19:22:17.665Z,97925
2018-04-14T19:24:45.940Z,97914
2018-04-14T19:27:14.159Z,97914
2018-04-14T19:29:42.340Z,97916
2018-04-14T19:32:11.293Z,97914
2018-04-14T19:34:39.469Z,97907
2018-04-14T19:37:07.655Z,97907
2018-04-14T19:39:35.852Z,97906
2018-04-14T19:42:04.026Z,97911
2018-04-14T19:44:32.198Z,97917
2018-04-14T19:47:00.385Z,97908
2018-04-14T19:49:29.323Z,97908
2018-04-14T19:51:57.494Z,97910
2018-04-14T19:54:25.726Z,97909
2018-04-14T19:56:53.868Z,97910
2018-04-14T19:59:22.044Z,97909
2018-04-14T20:01:50.235Z,97910
2018-04-14T20:04:18.401Z,97914
2018-04-14T20:06:46.608Z,97914
2018-04-14T20:09:15.545Z,97911
2018-04-14T20:11:43.722Z,97906
2018-04-14T20:14:11.917Z,97904
2018-04-14T20:16:40.087Z,97899
2018-04-14T20:19:08.282Z,97899
2018-04-14T20:21:36.463Z,97896
2018-04-14T20:24:04.633Z,97893
2018-04-14T20:26:32.810Z,97888
2018-04-14T20:29:00.979Z,97888
2018-04-14T20:31:29.155Z,97891
2018-04-14T20:33:57.322Z,97895
2018-04-14T20:36:25.492Z,97887
2018-04-14T20:38:53.664Z,97886
2018-04-14T20:41:21.833Z,97881
2018-04-14T20:43:50.012Z,97877
2018-04-14T20:46:18.183Z,97876
2018-04-14T20:48:46.353Z,97869
2018-04-14T20:51:14.526Z,97864
2018-04-14T20:53:42.698Z,97863
2018-04-14T20:56:10.885Z,97864
2018-04-14T20:58:39.096Z,97863
2018-04-14T21:01:08.028Z,97863
2018-04-14T21:03:36.205Z,97865
2018-04-14T21:06:04.395Z,97862
2018-04-14T21:08:32.658Z,97862
2018-04-14T21:11:00.833Z,97863
2018-04-14T21:13:29.004Z,97865
2018-04-14T21:15:57.181Z,97860
2018-04-14T21:18:25.364Z,97856
2018-04-14T21:20:53.546Z,97853
2018-04-14T21:23:21.714Z,97857
2018-04-14T21:25:49.886Z,97858
2018-04-14T21:28:18.075Z,97864
2018-04-14T21:30:46.237Z,97869
2018-04-14T21:33:14.406Z,97868
2018-04-14T21:35:42.585Z,97862
2018-04-14T21:38:10.767Z,97865
2018-04-14T21:40:38.956Z,97864
2018-04-14T21:43:07.126Z,97862
2018-04-14T21:45:35.294Z,97870
2018-04-14T21:48:03.467Z,97869
2018-04-14T21:50:31.656Z,97872
2018-04-14T21:52:59.822Z,97875
2018-04-14T21:55:28.005Z,97869
2018-04-14T21:57:56.252Z,97872
2018-04-14T22:00:24.424Z,97871
2018-04-14T22:02:52.589Z,97869
2018-04-14T22:05:20.773Z,97866
2018-04-14T22:07:48.959Z,97864
2018-04-14T22:10:17.121Z,97862
2018-04-14T22:12:45.372Z,97858
2018-04-14T22:15:13.493Z,97853
2018-04-14T22:17:41.682Z,97849
2018-04-14T22:20:09.856Z,97847
2018-04-14T22:22:38.061Z,97850
2018-04-14T22:25:06.274Z,97843
2018-04-14T22:27:34.449Z,97847
2018-04-14T22:30:02.630Z,97844
2018-04-14T22:32:30.792Z,97837
2018-04-14T22:34:58.965Z,97844
2018-04-14T22:37:27.133Z,97846
2018-04-14T22:39:55.308Z,97849
2018-04-14T22:42:23.494Z,97847
2018-04-14T22:44:51.693Z,97837
2018-04-14T22:47:19.862Z,97837
2018-04-14T22:49:48.034Z,97837
2018-04-14T22:52:16.217Z,97837
2018-04-14T22:54:44.392Z,97840
2018-04-14T22:57:12.564Z,97843
2018-04-14T22:59:40.741Z,97844
2018-04-14T23:02:08.923Z,97840
2018-04-14T23:04:37.098Z,97843
2018-04-14T23:07:05.264Z,97846
2018-04-14T23:09:33.445Z,97847
2018-04-14T23:12:01.619Z,97851
2018-04-14T23:14:29.795Z,97852
2018-04-14T23:16:57.969Z,97854
2018-04-14T23:19:26.137Z,97846
2018-04-14T23:21:54.310Z,97841
2018-04-14T23:24:22.481Z,97838
2018-04-14T23:26:50.638Z,97837
2018-04-14T23:29:19.625Z,97832
2018-04-14T23:31:47.788Z,97832
2018-04-14T23:34:15.961Z,97829
2018-04-14T23:36:44.125Z,97831
2018-04-14T23:39:12.285Z,97826
2018-04-14T23:41:41.246Z,97821
2018-04-14T23:44:09.412Z,97823
2018-04-14T23:46:37.605Z,97818
2018-04-14T23:49:06.624Z,97821
2018-04-14T23:51:34.785Z,97812
2018-04-14T23:54:03.743Z,97808
2018-04-14T23:56:31.920Z,97804
2018-04-14T23:59:00.082Z,97804
